sensor_id;sensor_type;location;lat;lon;timestamp;P1;durP1;ratioP1;P2;durP2;ratioP2
10529;SDS011;5313;48.834;9.228;2022-11-28T00:00:13;7.40;;;5.70;;
10529;SDS011;5313;48.834;9.228;2022-11-28T00:02:39;7.17;;;5.37;;
10529;SDS011;5313;48.834;9.228;2022-11-28T00:05:05;9.47;;;5.70;;
10529;SDS011;5313;48.834;9.228;2022-11-28T00:07:34;7.27;;;5.50;;
10529;SDS011;5313;48.834;9.228;2022-11-28T00:09:59;8.73;;;6.07;;
10529;SDS011;5313;48.834;9.228;2022-11-28T00:12:26;8.70;;;5.83;;
10529;SDS011;5313;48.834;9.228;2022-11-28T00:14:52;9.83;;;5.63;;
10529;SDS011;5313;48.834;9.228;2022-11-28T00:17:18;8.27;;;6.00;;
10529;SDS011;5313;48.834;9.228;2022-11-28T00:19:44;7.13;;;5.57;;
10529;SDS011;5313;48.834;9.228;2022-11-28T00:22:10;10.40;;;5.87;;
10529;SDS011;5313;48.834;9.228;2022-11-28T00:24:35;9.10;;;5.80;;
10529;SDS011;5313;48.834;9.228;2022-11-28T00:27:01;8.77;;;5.87;;
10529;SDS011;5313;48.834;9.228;2022-11-28T00:29:26;9.37;;;6.17;;
10529;SDS011;5313;48.834;9.228;2022-11-28T00:31:52;9.07;;;5.93;;
10529;SDS011;5313;48.834;9.228;2022-11-28T00:34:17;7.80;;;5.73;;
10529;SDS011;5313;48.834;9.228;2022-11-28T00:36:43;9.30;;;5.97;;
10529;SDS011;5313;48.834;9.228;2022-11-28T00:39:10;9.30;;;5.93;;
10529;SDS011;5313;48.834;9.228;2022-11-28T00:41:36;9.27;;;6.43;;
10529;SDS011;5313;48.834;9.228;2022-11-28T00:44:02;10.53;;;6.73;;
10529;SDS011;5313;48.834;9.228;2022-11-28T00:46:27;7.50;;;6.07;;
10529;SDS011;5313;48.834;9.228;2022-11-28T00:48:53;9.07;;;6.20;;
10529;SDS011;5313;48.834;9.228;2022-11-28T00:51:20;9.50;;;6.33;;
10529;SDS011;5313;48.834;9.228;2022-11-28T00:53:47;11.33;;;6.53;;
10529;SDS011;5313;48.834;9.228;2022-11-28T00:56:16;9.13;;;6.57;;
10529;SDS011;5313;48.834;9.228;2022-11-28T00:58:43;8.87;;;6.50;;
10529;SDS011;5313;48.834;9.228;2022-11-28T01:01:11;11.73;;;6.77;;
10529;SDS011;5313;48.834;9.228;2022-11-28T01:03:45;9.83;;;6.70;;
10529;SDS011;5313;48.834;9.228;2022-11-28T01:06:12;8.80;;;6.30;;
10529;SDS011;5313;48.834;9.228;2022-11-28T01:08:44;9.73;;;6.70;;
10529;SDS011;5313;48.834;9.228;2022-11-28T01:11:10;10.43;;;6.83;;
10529;SDS011;5313;48.834;9.228;2022-11-28T01:13:37;9.27;;;6.67;;
10529;SDS011;5313;48.834;9.228;2022-11-28T01:16:03;8.53;;;6.30;;
10529;SDS011;5313;48.834;9.228;2022-11-28T01:18:28;10.67;;;7.13;;
10529;SDS011;5313;48.834;9.228;2022-11-28T01:20:54;9.10;;;6.47;;
10529;SDS011;5313;48.834;9.228;2022-11-28T01:23:19;9.50;;;6.43;;
10529;SDS011;5313;48.834;9.228;2022-11-28T01:25:45;11.03;;;7.03;;
10529;SDS011;5313;48.834;9.228;2022-11-28T01:28:10;8.70;;;6.23;;
10529;SDS011;5313;48.834;9.228;2022-11-28T01:30:36;8.97;;;6.40;;
10529;SDS011;5313;48.834;9.228;2022-11-28T01:33:01;10.50;;;6.97;;
10529;SDS011;5313;48.834;9.228;2022-11-28T01:35:27;9.07;;;6.60;;
10529;SDS011;5313;48.834;9.228;2022-11-28T01:37:53;10.93;;;6.80;;
10529;SDS011;5313;48.834;9.228;2022-11-28T01:40:18;11.20;;;6.40;;
10529;SDS011;5313;48.834;9.228;2022-11-28T01:42:44;8.93;;;6.10;;
10529;SDS011;5313;48.834;9.228;2022-11-28T01:47:52;9.07;;;6.37;;
10529;SDS011;5313;48.834;9.228;2022-11-28T01:50:22;9.13;;;6.40;;
10529;SDS011;5313;48.834;9.228;2022-11-28T01:52:49;8.63;;;6.47;;
10529;SDS011;5313;48.834;9.228;2022-11-28T01:55:20;8.73;;;6.60;;
10529;SDS011;5313;48.834;9.228;2022-11-28T01:57:48;11.67;;;7.03;;
10529;SDS011;5313;48.834;9.228;2022-11-28T02:00:15;9.43;;;6.17;;
10529;SDS011;5313;48.834;9.228;2022-11-28T02:02:45;9.63;;;6.93;;
10529;SDS011;5313;48.834;9.228;2022-11-28T02:05:41;8.70;;;6.40;;
10529;SDS011;5313;48.834;9.228;2022-11-28T02:08:07;9.20;;;6.70;;
10529;SDS011;5313;48.834;9.228;2022-11-28T02:11:17;9.27;;;6.53;;
10529;SDS011;5313;48.834;9.228;2022-11-28T02:13:31;11.07;;;6.83;;
10529;SDS011;5313;48.834;9.228;2022-11-28T02:35:33;8.30;;;5.87;;
10529;SDS011;5313;48.834;9.228;2022-11-28T02:38:35;7.70;;;5.60;;
10529;SDS011;5313;48.834;9.228;2022-11-28T02:41:29;7.87;;;5.23;;
10529;SDS011;5313;48.834;9.228;2022-11-28T02:44:06;7.57;;;5.13;;
10529;SDS011;5313;48.834;9.228;2022-11-28T02:47:44;7.53;;;5.37;;
10529;SDS011;5313;48.834;9.228;2022-11-28T02:50:02;7.13;;;5.20;;
10529;SDS011;5313;48.834;9.228;2022-11-28T02:52:34;7.77;;;5.67;;
10529;SDS011;5313;48.834;9.228;2022-11-28T02:55:03;8.90;;;6.43;;
10529;SDS011;5313;48.834;9.228;2022-11-28T02:57:40;8.03;;;5.90;;
10529;SDS011;5313;48.834;9.228;2022-11-28T03:02:56;8.27;;;5.60;;
10529;SDS011;5313;48.834;9.228;2022-11-28T03:05:38;8.60;;;6.03;;
10529;SDS011;5313;48.834;9.228;2022-11-28T03:08:30;8.63;;;5.73;;
10529;SDS011;5313;48.834;9.228;2022-11-28T03:11:28;8.20;;;5.63;;
10529;SDS011;5313;48.834;9.228;2022-11-28T03:17:26;7.07;;;5.53;;
10529;SDS011;5313;48.834;9.228;2022-11-28T03:25:22;6.97;;;5.27;;
10529;SDS011;5313;48.834;9.228;2022-11-28T03:28:08;9.00;;;5.87;;
10529;SDS011;5313;48.834;9.228;2022-11-28T03:30:47;8.43;;;5.63;;
10529;SDS011;5313;48.834;9.228;2022-11-28T03:33:38;7.13;;;5.40;;
10529;SDS011;5313;48.834;9.228;2022-11-28T03:36:12;8.60;;;5.50;;
10529;SDS011;5313;48.834;9.228;2022-11-28T03:38:43;7.90;;;5.57;;
10529;SDS011;5313;48.834;9.228;2022-11-28T03:41:15;7.53;;;5.43;;
10529;SDS011;5313;48.834;9.228;2022-11-28T03:43:48;7.97;;;5.57;;
10529;SDS011;5313;48.834;9.228;2022-11-28T03:46:18;8.00;;;5.53;;
10529;SDS011;5313;48.834;9.228;2022-11-28T03:48:46;8.00;;;5.50;;
10529;SDS011;5313;48.834;9.228;2022-11-28T03:51:16;8.77;;;6.00;;
10529;SDS011;5313;48.834;9.228;2022-11-28T03:54:05;9.30;;;5.90;;
10529;SDS011;5313;48.834;9.228;2022-11-28T03:56:39;9.77;;;5.77;;
10529;SDS011;5313;48.834;9.228;2022-11-28T04:01:52;9.53;;;6.33;;
10529;SDS011;5313;48.834;9.228;2022-11-28T04:04:31;7.57;;;5.73;;
10529;SDS011;5313;48.834;9.228;2022-11-28T04:10:10;7.33;;;5.37;;
10529;SDS011;5313;48.834;9.228;2022-11-28T04:15:26;7.57;;;5.33;;
10529;SDS011;5313;48.834;9.228;2022-11-28T04:18:03;8.43;;;6.00;;
10529;SDS011;5313;48.834;9.228;2022-11-28T04:21:17;7.10;;;5.60;;
10529;SDS011;5313;48.834;9.228;2022-11-28T04:23:38;9.13;;;6.07;;
10529;SDS011;5313;48.834;9.228;2022-11-28T04:26:26;9.47;;;6.27;;
10529;SDS011;5313;48.834;9.228;2022-11-28T04:28:58;9.37;;;6.47;;
10529;SDS011;5313;48.834;9.228;2022-11-28T04:31:28;7.67;;;6.10;;
10529;SDS011;5313;48.834;9.228;2022-11-28T04:33:57;8.27;;;6.10;;
10529;SDS011;5313;48.834;9.228;2022-11-28T04:36:27;9.30;;;5.70;;
10529;SDS011;5313;48.834;9.228;2022-11-28T04:38:54;7.87;;;5.97;;
10529;SDS011;5313;48.834;9.228;2022-11-28T04:41:23;8.60;;;6.60;;
10529;SDS011;5313;48.834;9.228;2022-11-28T04:44:02;11.13;;;6.27;;
10529;SDS011;5313;48.834;9.228;2022-11-28T04:46:36;9.27;;;6.27;;
10529;SDS011;5313;48.834;9.228;2022-11-28T04:49:05;8.60;;;6.03;;
10529;SDS011;5313;48.834;9.228;2022-11-28T04:51:35;9.30;;;6.17;;
10529;SDS011;5313;48.834;9.228;2022-11-28T04:54:44;8.07;;;5.80;;
10529;SDS011;5313;48.834;9.228;2022-11-28T04:57:13;7.93;;;6.13;;
10529;SDS011;5313;48.834;9.228;2022-11-28T04:59:56;7.90;;;5.70;;
10529;SDS011;5313;48.834;9.228;2022-11-28T05:02:25;9.33;;;5.97;;
10529;SDS011;5313;48.834;9.228;2022-11-28T05:04:52;8.57;;;5.93;;
10529;SDS011;5313;48.834;9.228;2022-11-28T05:07:19;7.93;;;5.83;;
10529;SDS011;5313;48.834;9.228;2022-11-28T05:09:46;9.17;;;5.97;;
10529;SDS011;5313;48.834;9.228;2022-11-28T05:12:12;8.17;;;6.13;;
10529;SDS011;5313;48.834;9.228;2022-11-28T05:14:37;9.67;;;6.63;;
10529;SDS011;5313;48.834;9.228;2022-11-28T05:17:04;9.77;;;6.30;;
10529;SDS011;5313;48.834;9.228;2022-11-28T05:19:30;11.13;;;6.57;;
10529;SDS011;5313;48.834;9.228;2022-11-28T05:21:56;10.10;;;6.23;;
10529;SDS011;5313;48.834;9.228;2022-11-28T05:24:21;9.60;;;6.47;;
10529;SDS011;5313;48.834;9.228;2022-11-28T05:26:47;9.27;;;6.33;;
10529;SDS011;5313;48.834;9.228;2022-11-28T05:29:13;13.07;;;7.40;;
10529;SDS011;5313;48.834;9.228;2022-11-28T05:31:39;9.17;;;6.03;;
10529;SDS011;5313;48.834;9.228;2022-11-28T05:34:04;8.57;;;5.90;;
10529;SDS011;5313;48.834;9.228;2022-11-28T05:36:30;13.27;;;6.10;;
10529;SDS011;5313;48.834;9.228;2022-11-28T05:38:55;8.77;;;5.90;;
10529;SDS011;5313;48.834;9.228;2022-11-28T05:41:23;9.33;;;6.27;;
10529;SDS011;5313;48.834;9.228;2022-11-28T05:43:52;9.80;;;6.07;;
10529;SDS011;5313;48.834;9.228;2022-11-28T05:46:19;8.80;;;6.20;;
10529;SDS011;5313;48.834;9.228;2022-11-28T05:48:44;9.07;;;6.17;;
10529;SDS011;5313;48.834;9.228;2022-11-28T05:51:10;7.33;;;5.70;;
10529;SDS011;5313;48.834;9.228;2022-11-28T05:53:36;11.33;;;6.63;;
10529;SDS011;5313;48.834;9.228;2022-11-28T05:56:06;9.77;;;6.60;;
10529;SDS011;5313;48.834;9.228;2022-11-28T05:58:36;7.50;;;5.77;;
10529;SDS011;5313;48.834;9.228;2022-11-28T06:01:09;9.30;;;5.90;;
10529;SDS011;5313;48.834;9.228;2022-11-28T06:03:35;10.43;;;5.93;;
10529;SDS011;5313;48.834;9.228;2022-11-28T06:06:01;8.93;;;6.17;;
10529;SDS011;5313;48.834;9.228;2022-11-28T06:08:27;10.50;;;6.00;;
10529;SDS011;5313;48.834;9.228;2022-11-28T06:10:56;8.00;;;5.67;;
10529;SDS011;5313;48.834;9.228;2022-11-28T06:13:22;8.77;;;6.07;;
10529;SDS011;5313;48.834;9.228;2022-11-28T06:15:48;10.20;;;6.63;;
10529;SDS011;5313;48.834;9.228;2022-11-28T06:18:13;11.40;;;7.00;;
10529;SDS011;5313;48.834;9.228;2022-11-28T06:20:39;9.00;;;6.20;;
10529;SDS011;5313;48.834;9.228;2022-11-28T06:23:05;10.90;;;6.60;;
10529;SDS011;5313;48.834;9.228;2022-11-28T06:25:30;10.67;;;7.13;;
10529;SDS011;5313;48.834;9.228;2022-11-28T06:27:56;7.90;;;6.00;;
10529;SDS011;5313;48.834;9.228;2022-11-28T06:30:21;10.93;;;6.27;;
10529;SDS011;5313;48.834;9.228;2022-11-28T06:32:47;8.83;;;6.07;;
10529;SDS011;5313;48.834;9.228;2022-11-28T06:35:12;12.97;;;6.90;;
10529;SDS011;5313;48.834;9.228;2022-11-28T06:37:38;9.43;;;6.60;;
10529;SDS011;5313;48.834;9.228;2022-11-28T06:40:03;8.83;;;6.07;;
10529;SDS011;5313;48.834;9.228;2022-11-28T06:42:30;10.33;;;6.37;;
10529;SDS011;5313;48.834;9.228;2022-11-28T06:44:55;11.83;;;6.37;;
10529;SDS011;5313;48.834;9.228;2022-11-28T06:47:21;9.43;;;6.20;;
10529;SDS011;5313;48.834;9.228;2022-11-28T06:49:47;9.90;;;6.10;;
10529;SDS011;5313;48.834;9.228;2022-11-28T06:52:13;9.40;;;5.97;;
10529;SDS011;5313;48.834;9.228;2022-11-28T06:54:38;10.83;;;6.23;;
10529;SDS011;5313;48.834;9.228;2022-11-28T06:57:04;9.33;;;6.13;;
10529;SDS011;5313;48.834;9.228;2022-11-28T06:59:29;9.93;;;6.60;;
10529;SDS011;5313;48.834;9.228;2022-11-28T07:01:55;8.80;;;6.10;;
10529;SDS011;5313;48.834;9.228;2022-11-28T07:04:21;8.50;;;6.03;;
10529;SDS011;5313;48.834;9.228;2022-11-28T07:06:47;8.70;;;5.97;;
10529;SDS011;5313;48.834;9.228;2022-11-28T07:09:12;8.63;;;6.07;;
10529;SDS011;5313;48.834;9.228;2022-11-28T07:11:39;9.57;;;6.60;;
10529;SDS011;5313;48.834;9.228;2022-11-28T07:14:05;11.40;;;6.93;;
10529;SDS011;5313;48.834;9.228;2022-11-28T07:16:31;13.03;;;7.67;;
10529;SDS011;5313;48.834;9.228;2022-11-28T07:18:57;11.13;;;7.40;;
10529;SDS011;5313;48.834;9.228;2022-11-28T07:21:23;7.73;;;6.13;;
10529;SDS011;5313;48.834;9.228;2022-11-28T07:23:50;9.67;;;6.60;;
10529;SDS011;5313;48.834;9.228;2022-11-28T07:26:16;9.53;;;6.63;;
10529;SDS011;5313;48.834;9.228;2022-11-28T07:28:43;9.23;;;6.20;;
10529;SDS011;5313;48.834;9.228;2022-11-28T07:31:10;11.70;;;6.93;;
10529;SDS011;5313;48.834;9.228;2022-11-28T07:33:38;8.97;;;6.30;;
10529;SDS011;5313;48.834;9.228;2022-11-28T07:36:07;10.80;;;6.90;;
10529;SDS011;5313;48.834;9.228;2022-11-28T07:38:46;9.30;;;6.63;;
10529;SDS011;5313;48.834;9.228;2022-11-28T07:41:12;13.47;;;7.80;;
10529;SDS011;5313;48.834;9.228;2022-11-28T07:43:39;12.53;;;7.53;;
10529;SDS011;5313;48.834;9.228;2022-11-28T07:46:07;11.60;;;7.37;;
10529;SDS011;5313;48.834;9.228;2022-11-28T07:48:34;11.47;;;8.20;;
10529;SDS011;5313;48.834;9.228;2022-11-28T07:51:04;12.20;;;7.87;;
10529;SDS011;5313;48.834;9.228;2022-11-28T07:53:31;15.13;;;8.13;;
10529;SDS011;5313;48.834;9.228;2022-11-28T07:56:00;11.07;;;7.33;;
10529;SDS011;5313;48.834;9.228;2022-11-28T07:58:27;13.10;;;8.00;;
10529;SDS011;5313;48.834;9.228;2022-11-28T08:00:53;11.43;;;7.20;;
10529;SDS011;5313;48.834;9.228;2022-11-28T08:03:18;12.13;;;7.13;;
10529;SDS011;5313;48.834;9.228;2022-11-28T08:05:44;12.60;;;7.07;;
10529;SDS011;5313;48.834;9.228;2022-11-28T08:08:13;11.37;;;7.37;;
10529;SDS011;5313;48.834;9.228;2022-11-28T08:10:43;13.73;;;7.83;;
10529;SDS011;5313;48.834;9.228;2022-11-28T08:13:10;12.63;;;8.27;;
10529;SDS011;5313;48.834;9.228;2022-11-28T08:15:37;13.90;;;8.10;;
10529;SDS011;5313;48.834;9.228;2022-11-28T08:18:03;11.77;;;7.83;;
10529;SDS011;5313;48.834;9.228;2022-11-28T08:20:30;14.73;;;8.53;;
10529;SDS011;5313;48.834;9.228;2022-11-28T08:22:55;15.47;;;8.27;;
10529;SDS011;5313;48.834;9.228;2022-11-28T08:25:21;11.00;;;7.33;;
10529;SDS011;5313;48.834;9.228;2022-11-28T08:27:47;15.13;;;8.67;;
10529;SDS011;5313;48.834;9.228;2022-11-28T08:30:12;14.63;;;7.97;;
10529;SDS011;5313;48.834;9.228;2022-11-28T08:32:38;13.47;;;8.07;;
10529;SDS011;5313;48.834;9.228;2022-11-28T08:35:04;12.50;;;7.63;;
10529;SDS011;5313;48.834;9.228;2022-11-28T08:37:30;11.63;;;8.03;;
10529;SDS011;5313;48.834;9.228;2022-11-28T08:39:56;12.43;;;8.20;;
10529;SDS011;5313;48.834;9.228;2022-11-28T08:42:21;10.47;;;7.80;;
10529;SDS011;5313;48.834;9.228;2022-11-28T08:44:47;11.80;;;7.23;;
10529;SDS011;5313;48.834;9.228;2022-11-28T08:47:12;11.60;;;7.93;;
10529;SDS011;5313;48.834;9.228;2022-11-28T08:49:38;14.30;;;8.07;;
10529;SDS011;5313;48.834;9.228;2022-11-28T08:52:04;11.40;;;8.03;;
10529;SDS011;5313;48.834;9.228;2022-11-28T08:54:30;10.17;;;7.77;;
10529;SDS011;5313;48.834;9.228;2022-11-28T08:56:56;13.13;;;7.80;;
10529;SDS011;5313;48.834;9.228;2022-11-28T08:59:22;10.60;;;7.33;;
10529;SDS011;5313;48.834;9.228;2022-11-28T09:01:50;11.47;;;7.73;;
10529;SDS011;5313;48.834;9.228;2022-11-28T09:04:16;14.77;;;7.80;;
10529;SDS011;5313;48.834;9.228;2022-11-28T09:06:42;14.00;;;7.80;;
10529;SDS011;5313;48.834;9.228;2022-11-28T09:09:08;16.73;;;9.37;;
10529;SDS011;5313;48.834;9.228;2022-11-28T09:11:33;17.03;;;8.87;;
10529;SDS011;5313;48.834;9.228;2022-11-28T09:13:59;12.30;;;7.60;;
10529;SDS011;5313;48.834;9.228;2022-11-28T09:16:25;10.13;;;7.87;;
10529;SDS011;5313;48.834;9.228;2022-11-28T09:18:50;12.53;;;8.37;;
10529;SDS011;5313;48.834;9.228;2022-11-28T09:21:16;14.60;;;7.87;;
10529;SDS011;5313;48.834;9.228;2022-11-28T09:23:42;11.37;;;7.57;;
10529;SDS011;5313;48.834;9.228;2022-11-28T09:26:09;11.40;;;7.10;;
10529;SDS011;5313;48.834;9.228;2022-11-28T09:28:36;8.87;;;6.53;;
10529;SDS011;5313;48.834;9.228;2022-11-28T09:31:02;9.87;;;6.83;;
10529;SDS011;5313;48.834;9.228;2022-11-28T09:33:29;10.60;;;7.17;;
10529;SDS011;5313;48.834;9.228;2022-11-28T09:35:54;10.23;;;6.57;;
10529;SDS011;5313;48.834;9.228;2022-11-28T09:38:22;10.40;;;6.80;;
10529;SDS011;5313;48.834;9.228;2022-11-28T09:40:48;11.33;;;6.47;;
10529;SDS011;5313;48.834;9.228;2022-11-28T09:43:15;12.43;;;7.00;;
10529;SDS011;5313;48.834;9.228;2022-11-28T09:45:52;11.77;;;7.40;;
10529;SDS011;5313;48.834;9.228;2022-11-28T09:48:22;11.93;;;6.70;;
10529;SDS011;5313;48.834;9.228;2022-11-28T09:50:53;11.37;;;7.40;;
10529;SDS011;5313;48.834;9.228;2022-11-28T09:53:29;15.20;;;6.73;;
10529;SDS011;5313;48.834;9.228;2022-11-28T09:56:20;9.00;;;6.30;;
10529;SDS011;5313;48.834;9.228;2022-11-28T09:58:47;9.90;;;6.50;;
10529;SDS011;5313;48.834;9.228;2022-11-28T10:07:18;10.97;;;6.33;;
10529;SDS011;5313;48.834;9.228;2022-11-28T10:16:09;9.90;;;6.23;;
10529;SDS011;5313;48.834;9.228;2022-11-28T10:18:25;9.07;;;6.23;;
10529;SDS011;5313;48.834;9.228;2022-11-28T10:21:38;9.30;;;6.23;;
10529;SDS011;5313;48.834;9.228;2022-11-28T10:24:18;8.00;;;6.00;;
10529;SDS011;5313;48.834;9.228;2022-11-28T10:26:53;10.17;;;6.63;;
10529;SDS011;5313;48.834;9.228;2022-11-28T10:32:13;9.77;;;7.33;;
10529;SDS011;5313;48.834;9.228;2022-11-28T10:37:28;10.50;;;6.77;;
10529;SDS011;5313;48.834;9.228;2022-11-28T10:39:57;10.63;;;6.77;;
10529;SDS011;5313;48.834;9.228;2022-11-28T10:42:41;11.13;;;6.10;;
10529;SDS011;5313;48.834;9.228;2022-11-28T10:45:19;11.23;;;6.40;;
10529;SDS011;5313;48.834;9.228;2022-11-28T10:48:10;9.07;;;6.23;;
10529;SDS011;5313;48.834;9.228;2022-11-28T10:50:57;8.10;;;6.30;;
10529;SDS011;5313;48.834;9.228;2022-11-28T10:59:16;10.80;;;6.70;;
10529;SDS011;5313;48.834;9.228;2022-11-28T11:02:54;11.47;;;6.83;;
10529;SDS011;5313;48.834;9.228;2022-11-28T11:05:13;12.97;;;6.87;;
10529;SDS011;5313;48.834;9.228;2022-11-28T11:07:48;11.97;;;6.30;;
10529;SDS011;5313;48.834;9.228;2022-11-28T11:10:17;15.90;;;7.33;;
10529;SDS011;5313;48.834;9.228;2022-11-28T11:12:51;10.80;;;6.50;;
10529;SDS011;5313;48.834;9.228;2022-11-28T11:17:45;10.73;;;6.43;;
10529;SDS011;5313;48.834;9.228;2022-11-28T11:22:55;10.63;;;6.30;;
10529;SDS011;5313;48.834;9.228;2022-11-28T11:25:26;10.17;;;6.23;;
10529;SDS011;5313;48.834;9.228;2022-11-28T11:27:54;8.07;;;5.50;;
10529;SDS011;5313;48.834;9.228;2022-11-28T11:30:29;9.43;;;6.03;;
10529;SDS011;5313;48.834;9.228;2022-11-28T11:32:57;8.90;;;6.23;;
10529;SDS011;5313;48.834;9.228;2022-11-28T11:35:34;10.10;;;6.03;;
10529;SDS011;5313;48.834;9.228;2022-11-28T11:38:14;8.33;;;5.97;;
10529;SDS011;5313;48.834;9.228;2022-11-28T11:40:40;10.57;;;6.70;;
10529;SDS011;5313;48.834;9.228;2022-11-28T11:43:07;13.13;;;6.27;;
10529;SDS011;5313;48.834;9.228;2022-11-28T11:46:05;12.53;;;6.50;;
10529;SDS011;5313;48.834;9.228;2022-11-28T11:48:42;9.83;;;6.33;;
10529;SDS011;5313;48.834;9.228;2022-11-28T11:51:22;10.03;;;6.80;;
10529;SDS011;5313;48.834;9.228;2022-11-28T11:54:35;9.60;;;6.77;;
10529;SDS011;5313;48.834;9.228;2022-11-28T11:56:43;8.20;;;6.37;;
10529;SDS011;5313;48.834;9.228;2022-11-28T11:59:19;11.00;;;6.73;;
10529;SDS011;5313;48.834;9.228;2022-11-28T12:01:50;11.83;;;7.50;;
10529;SDS011;5313;48.834;9.228;2022-11-28T12:04:36;13.13;;;7.33;;
10529;SDS011;5313;48.834;9.228;2022-11-28T12:07:11;20.30;;;10.67;;
10529;SDS011;5313;48.834;9.228;2022-11-28T12:10:00;12.93;;;8.17;;
10529;SDS011;5313;48.834;9.228;2022-11-28T12:12:27;12.87;;;7.53;;
10529;SDS011;5313;48.834;9.228;2022-11-28T12:14:55;13.03;;;8.07;;
10529;SDS011;5313;48.834;9.228;2022-11-28T12:17:27;10.43;;;7.67;;
10529;SDS011;5313;48.834;9.228;2022-11-28T12:27:59;12.03;;;8.50;;
10529;SDS011;5313;48.834;9.228;2022-11-28T12:30:50;15.73;;;9.27;;
10529;SDS011;5313;48.834;9.228;2022-11-28T12:33:20;11.50;;;8.30;;
10529;SDS011;5313;48.834;9.228;2022-11-28T12:51:01;14.93;;;9.27;;
10529;SDS011;5313;48.834;9.228;2022-11-28T12:53:35;13.43;;;9.10;;
10529;SDS011;5313;48.834;9.228;2022-11-28T12:56:32;29.30;;;16.47;;
10529;SDS011;5313;48.834;9.228;2022-11-28T12:59:15;18.23;;;11.90;;
10529;SDS011;5313;48.834;9.228;2022-11-28T13:05:02;21.67;;;12.70;;
10529;SDS011;5313;48.834;9.228;2022-11-28T13:10:41;18.80;;;11.00;;
10529;SDS011;5313;48.834;9.228;2022-11-28T13:13:16;16.27;;;10.80;;
10529;SDS011;5313;48.834;9.228;2022-11-28T13:15:52;14.60;;;10.50;;
10529;SDS011;5313;48.834;9.228;2022-11-28T13:24:14;18.37;;;10.40;;
10529;SDS011;5313;48.834;9.228;2022-11-28T13:29:35;20.90;;;14.20;;
10529;SDS011;5313;48.834;9.228;2022-11-28T13:35:10;20.53;;;12.27;;
10529;SDS011;5313;48.834;9.228;2022-11-28T13:37:53;18.47;;;11.80;;
10529;SDS011;5313;48.834;9.228;2022-11-28T13:43:21;14.37;;;9.83;;
10529;SDS011;5313;48.834;9.228;2022-11-28T13:46:01;16.87;;;10.20;;
10529;SDS011;5313;48.834;9.228;2022-11-28T13:53:39;14.27;;;10.03;;
10529;SDS011;5313;48.834;9.228;2022-11-28T13:58:32;20.70;;;11.30;;
10529;SDS011;5313;48.834;9.228;2022-11-28T14:01:12;14.23;;;9.73;;
10529;SDS011;5313;48.834;9.228;2022-11-28T14:06:20;19.37;;;10.83;;
10529;SDS011;5313;48.834;9.228;2022-11-28T14:08:48;15.00;;;10.13;;
10529;SDS011;5313;48.834;9.228;2022-11-28T14:11:41;15.97;;;10.90;;
10529;SDS011;5313;48.834;9.228;2022-11-28T14:14:35;15.00;;;10.33;;
10529;SDS011;5313;48.834;9.228;2022-11-28T14:17:29;13.13;;;8.67;;
10529;SDS011;5313;48.834;9.228;2022-11-28T14:23:01;15.83;;;9.33;;
10529;SDS011;5313;48.834;9.228;2022-11-28T14:25:40;13.07;;;8.93;;
10529;SDS011;5313;48.834;9.228;2022-11-28T14:28:22;12.93;;;9.50;;
10529;SDS011;5313;48.834;9.228;2022-11-28T14:30:59;11.50;;;9.10;;
10529;SDS011;5313;48.834;9.228;2022-11-28T14:33:43;12.27;;;9.10;;
10529;SDS011;5313;48.834;9.228;2022-11-28T14:36:21;13.07;;;9.00;;
10529;SDS011;5313;48.834;9.228;2022-11-28T14:49:46;12.20;;;8.37;;
10529;SDS011;5313;48.834;9.228;2022-11-28T14:52:34;13.63;;;9.20;;
10529;SDS011;5313;48.834;9.228;2022-11-28T14:55:01;20.27;;;10.10;;
10529;SDS011;5313;48.834;9.228;2022-11-28T14:57:30;18.13;;;9.33;;
10529;SDS011;5313;48.834;9.228;2022-11-28T15:00:03;14.37;;;8.40;;
10529;SDS011;5313;48.834;9.228;2022-11-28T15:02:48;13.93;;;7.77;;
10529;SDS011;5313;48.834;9.228;2022-11-28T15:05:37;12.03;;;8.00;;
10529;SDS011;5313;48.834;9.228;2022-11-28T15:08:17;14.53;;;8.13;;
10529;SDS011;5313;48.834;9.228;2022-11-28T15:14:01;12.80;;;8.37;;
10529;SDS011;5313;48.834;9.228;2022-11-28T15:16:29;10.37;;;7.33;;
10529;SDS011;5313;48.834;9.228;2022-11-28T15:19:02;15.07;;;8.37;;
10529;SDS011;5313;48.834;9.228;2022-11-28T15:21:56;12.97;;;8.77;;
10529;SDS011;5313;48.834;9.228;2022-11-28T15:24:22;14.83;;;9.20;;
10529;SDS011;5313;48.834;9.228;2022-11-28T15:29:37;15.93;;;9.37;;
10529;SDS011;5313;48.834;9.228;2022-11-28T15:32:02;12.20;;;9.13;;
10529;SDS011;5313;48.834;9.228;2022-11-28T15:34:30;15.53;;;10.30;;
10529;SDS011;5313;48.834;9.228;2022-11-28T15:37:01;14.13;;;10.03;;
10529;SDS011;5313;48.834;9.228;2022-11-28T15:39:30;14.37;;;10.17;;
10529;SDS011;5313;48.834;9.228;2022-11-28T15:42:03;17.90;;;10.30;;
10529;SDS011;5313;48.834;9.228;2022-11-28T15:45:10;22.47;;;13.13;;
10529;SDS011;5313;48.834;9.228;2022-11-28T15:47:39;14.60;;;10.33;;
10529;SDS011;5313;48.834;9.228;2022-11-28T15:52:34;15.23;;;11.27;;
10529;SDS011;5313;48.834;9.228;2022-11-28T15:54:59;16.70;;;10.57;;
10529;SDS011;5313;48.834;9.228;2022-11-28T15:57:25;28.47;;;15.20;;
10529;SDS011;5313;48.834;9.228;2022-11-28T15:59:53;18.27;;;11.37;;
10529;SDS011;5313;48.834;9.228;2022-11-28T16:05:02;21.13;;;13.67;;
10529;SDS011;5313;48.834;9.228;2022-11-28T16:07:40;17.50;;;11.43;;
10529;SDS011;5313;48.834;9.228;2022-11-28T16:10:19;16.73;;;11.53;;
10529;SDS011;5313;48.834;9.228;2022-11-28T16:12:46;23.47;;;13.83;;
10529;SDS011;5313;48.834;9.228;2022-11-28T16:15:18;22.93;;;14.30;;
10529;SDS011;5313;48.834;9.228;2022-11-28T16:17:45;23.30;;;13.43;;
10529;SDS011;5313;48.834;9.228;2022-11-28T16:20:22;19.20;;;12.60;;
10529;SDS011;5313;48.834;9.228;2022-11-28T16:22:55;19.50;;;13.43;;
10529;SDS011;5313;48.834;9.228;2022-11-28T16:25:26;23.43;;;13.90;;
10529;SDS011;5313;48.834;9.228;2022-11-28T16:27:53;19.67;;;13.70;;
10529;SDS011;5313;48.834;9.228;2022-11-28T16:32:56;19.53;;;13.73;;
10529;SDS011;5313;48.834;9.228;2022-11-28T16:35:32;21.00;;;15.03;;
10529;SDS011;5313;48.834;9.228;2022-11-28T16:38:21;22.07;;;14.83;;
10529;SDS011;5313;48.834;9.228;2022-11-28T16:40:49;27.17;;;15.97;;
10529;SDS011;5313;48.834;9.228;2022-11-28T16:43:19;23.23;;;15.63;;
10529;SDS011;5313;48.834;9.228;2022-11-28T16:45:55;20.23;;;15.07;;
10529;SDS011;5313;48.834;9.228;2022-11-28T16:48:26;22.00;;;14.07;;
10529;SDS011;5313;48.834;9.228;2022-11-28T16:51:27;20.23;;;14.17;;
10529;SDS011;5313;48.834;9.228;2022-11-28T16:56:47;22.73;;;16.10;;
10529;SDS011;5313;48.834;9.228;2022-11-28T16:59:14;22.67;;;15.37;;
10529;SDS011;5313;48.834;9.228;2022-11-28T17:01:41;25.33;;;15.17;;
10529;SDS011;5313;48.834;9.228;2022-11-28T17:04:21;24.20;;;14.70;;
10529;SDS011;5313;48.834;9.228;2022-11-28T17:06:54;20.83;;;14.93;;
10529;SDS011;5313;48.834;9.228;2022-11-28T17:09:21;20.80;;;14.43;;
10529;SDS011;5313;48.834;9.228;2022-11-28T17:11:57;23.07;;;14.90;;
10529;SDS011;5313;48.834;9.228;2022-11-28T17:14:30;25.17;;;15.30;;
10529;SDS011;5313;48.834;9.228;2022-11-28T17:16:56;22.63;;;14.37;;
10529;SDS011;5313;48.834;9.228;2022-11-28T17:19:21;22.13;;;13.73;;
10529;SDS011;5313;48.834;9.228;2022-11-28T17:21:48;20.63;;;13.17;;
10529;SDS011;5313;48.834;9.228;2022-11-28T17:24:19;19.77;;;14.13;;
10529;SDS011;5313;48.834;9.228;2022-11-28T17:26:51;21.77;;;16.03;;
10529;SDS011;5313;48.834;9.228;2022-11-28T17:29:17;22.80;;;14.97;;
10529;SDS011;5313;48.834;9.228;2022-11-28T17:31:43;21.83;;;14.63;;
10529;SDS011;5313;48.834;9.228;2022-11-28T17:34:20;18.53;;;14.20;;
10529;SDS011;5313;48.834;9.228;2022-11-28T17:36:55;23.43;;;15.23;;
10529;SDS011;5313;48.834;9.228;2022-11-28T17:39:21;25.03;;;14.60;;
10529;SDS011;5313;48.834;9.228;2022-11-28T17:41:47;24.97;;;14.27;;
10529;SDS011;5313;48.834;9.228;2022-11-28T17:44:17;22.97;;;14.93;;
10529;SDS011;5313;48.834;9.228;2022-11-28T17:46:45;24.07;;;14.67;;
10529;SDS011;5313;48.834;9.228;2022-11-28T17:49:11;21.20;;;13.77;;
10529;SDS011;5313;48.834;9.228;2022-11-28T17:51:36;22.53;;;13.37;;